createdAt,value
2018-11-22T00:00:28.102Z,4.80
2018-11-22T00:03:08.100Z,4.70
2018-11-22T00:05:47.608Z,4.90
2018-11-22T00:08:27.295Z,4.80
2018-11-22T00:11:06.831Z,5.00
2018-11-22T00:13:46.756Z,4.90
2018-11-22T00:16:26.468Z,5.00
2018-11-22T00:19:06.366Z,5.00
2018-11-22T00:21:46.328Z,4.90
2018-11-22T00:24:25.932Z,4.90
2018-11-22T00:27:08.238Z,4.90
2018-11-22T00:29:48.207Z,4.80
2018-11-22T00:32:27.945Z,4.90
2018-11-22T00:35:07.634Z,4.80
2018-11-22T00:37:47.677Z,4.90
2018-11-22T00:40:27.647Z,4.70
2018-11-22T00:43:07.505Z,4.80
2018-11-22T00:45:47.823Z,4.70
2018-11-22T00:48:31.857Z,4.60
2018-11-22T00:51:12.177Z,4.60
2018-11-22T00:53:51.835Z,4.50
2018-11-22T00:56:31.616Z,4.70
2018-11-22T00:59:11.831Z,4.70
2018-11-22T01:01:51.195Z,4.60
2018-11-22T01:04:31.265Z,4.30
2018-11-22T01:07:11.068Z,4.40
2018-11-22T01:09:51.155Z,4.50
2018-11-22T01:12:31.823Z,4.60
2018-11-22T01:15:12.164Z,4.70
2018-11-22T01:17:51.876Z,4.60
2018-11-22T01:20:31.607Z,4.50
2018-11-22T01:23:11.264Z,4.70
2018-11-22T01:25:50.839Z,4.70
2018-11-22T01:28:30.437Z,4.70
2018-11-22T01:31:10.521Z,4.80
2018-11-22T01:33:50.241Z,4.90
2018-11-22T01:36:30.509Z,5.00
2018-11-22T01:38:58.677Z,4.90
2018-11-22T01:41:45.518Z,5.00
2018-11-22T01:44:25.672Z,4.90
2018-11-22T01:47:05.623Z,4.90
2018-11-22T01:49:45.029Z,4.90
2018-11-22T01:52:25.026Z,5.00
2018-11-22T01:55:04.830Z,5.10
2018-11-22T01:57:44.852Z,5.10
2018-11-22T02:00:25.640Z,5.10
2018-11-22T02:03:06.054Z,5.10
2018-11-22T02:05:45.729Z,5.30
2018-11-22T02:08:12.776Z,5.40
2018-11-22T02:10:59.765Z,5.30
2018-11-22T02:13:39.401Z,5.20
2018-11-22T02:16:18.682Z,5.20
2018-11-22T02:18:58.883Z,5.40
2018-11-22T02:21:38.520Z,5.40
2018-11-22T02:24:18.421Z,5.30
2018-11-22T02:26:58.120Z,5.30
2018-11-22T02:29:38.017Z,5.50
2018-11-22T02:32:17.943Z,5.50
2018-11-22T02:34:58.055Z,5.50
2018-11-22T02:37:39.535Z,5.40
2018-11-22T02:40:19.691Z,5.60
2018-11-22T02:42:59.743Z,5.50
2018-11-22T02:45:39.281Z,5.40
2018-11-22T02:48:19.171Z,5.30
2018-11-22T02:50:59.044Z,5.40
2018-11-22T02:53:39.800Z,5.30
2018-11-22T02:56:20.108Z,5.30
2018-11-22T02:58:59.966Z,5.50
2018-11-22T03:01:39.843Z,5.50
2018-11-22T03:04:24.209Z,5.40
2018-11-22T03:07:04.477Z,5.40
2018-11-22T03:09:44.622Z,5.40
2018-11-22T03:12:24.222Z,5.40
2018-11-22T03:15:04.309Z,5.30
2018-11-22T03:23:52.840Z,5.40
2018-11-22T03:26:39.435Z,5.40
2018-11-22T03:29:19.610Z,5.30
2018-11-22T03:31:59.465Z,5.30
2018-11-22T03:34:39.609Z,5.10
2018-11-22T03:37:19.259Z,5.10
2018-11-22T03:39:59.142Z,5.20
2018-11-22T03:42:39.254Z,5.00
2018-11-22T03:45:19.383Z,5.10
2018-11-22T03:47:58.844Z,5.10
2018-11-22T03:50:38.915Z,5.20
2018-11-22T03:53:18.306Z,5.20
2018-11-22T03:55:57.922Z,5.20
2018-11-22T03:58:38.422Z,5.20
2018-11-22T04:01:19.122Z,5.10
2018-11-22T04:03:59.125Z,5.10
2018-11-22T04:06:38.583Z,5.10
2018-11-22T04:09:18.289Z,5.10
2018-11-22T04:11:58.080Z,5.00
2018-11-22T12:17:51.965Z,7.10
2018-11-22T12:20:19.792Z,7.20
2018-11-22T12:22:48.568Z,7.20
2018-11-22T12:25:17.315Z,7.30
2018-11-22T12:27:45.788Z,7.20
2018-11-22T12:30:20.876Z,7.20
2018-11-22T12:32:54.098Z,7.20
2018-11-22T12:35:32.512Z,7.30
2018-11-22T12:38:05.600Z,7.20
2018-11-22T12:40:32.942Z,7.20
2018-11-22T12:43:00.539Z,7.10
2018-11-22T12:45:28.327Z,7.20
2018-11-22T12:47:58.882Z,7.10
2018-11-22T12:50:26.285Z,7.10
2018-11-22T12:52:53.637Z,7.10
2018-11-22T12:55:20.993Z,7.10
2018-11-22T12:57:48.395Z,7.30
2018-11-22T13:00:16.673Z,7.40
2018-11-22T13:05:30.239Z,7.40
2018-11-22T13:07:57.723Z,7.20
2018-11-22T13:10:31.187Z,7.10
2018-11-22T13:12:58.871Z,6.90
2018-11-22T13:15:26.431Z,6.90
2018-11-22T13:17:53.884Z,6.90
2018-11-22T13:20:21.960Z,7.10
2018-11-22T13:22:49.387Z,6.90
2018-11-22T13:25:22.052Z,6.80
2018-11-22T13:27:49.555Z,6.90
2018-11-22T13:30:21.552Z,7.00
2018-11-22T13:32:49.734Z,7.10
2018-11-22T13:35:17.973Z,7.10
2018-11-22T13:37:49.593Z,7.10
2018-11-22T13:40:17.117Z,7.20
2018-11-22T13:42:45.427Z,7.20
2018-11-22T13:45:14.961Z,7.10
2018-11-22T13:47:43.539Z,7.20
2018-11-22T13:50:17.994Z,7.20
2018-11-22T13:52:46.399Z,7.00
2018-11-22T13:55:14.067Z,6.90
2018-11-22T13:57:41.522Z,6.90
2018-11-22T14:00:11.927Z,6.80
2018-11-22T14:02:43.719Z,6.90
2018-11-22T14:05:11.644Z,6.70
2018-11-22T14:07:38.774Z,6.90
2018-11-22T14:10:09.178Z,6.80
2018-11-22T14:12:36.656Z,6.70
2018-11-22T14:15:10.667Z,6.50
2018-11-22T14:17:38.387Z,6.40
2018-11-22T14:20:07.846Z,6.40
2018-11-22T14:22:35.305Z,6.40
2018-11-22T14:25:02.900Z,6.60
2018-11-22T14:27:30.343Z,6.70
2018-11-22T14:30:01.575Z,6.80
2018-11-22T14:32:29.089Z,6.70
2018-11-22T14:35:00.530Z,6.40
2018-11-22T14:37:24.121Z,6.40
2018-11-22T14:39:51.575Z,6.30
2018-11-22T14:42:19.042Z,6.30
2018-11-22T14:44:48.291Z,6.40
2018-11-22T14:47:15.722Z,6.40
2018-11-22T14:49:43.256Z,6.30
2018-11-22T14:52:10.803Z,6.50
2018-11-22T14:54:38.247Z,6.60
2018-11-22T14:57:05.871Z,6.50
2018-11-22T14:59:39.283Z,6.40
2018-11-22T15:02:06.791Z,6.20
2018-11-22T15:04:34.231Z,6.10
2018-11-22T15:07:01.704Z,6.10
2018-11-22T15:09:29.171Z,6.20
2018-11-22T15:11:56.595Z,6.50
2018-11-22T15:17:02.987Z,6.70
2018-11-22T15:19:30.448Z,6.80
2018-11-22T15:21:57.924Z,6.70
2018-11-22T15:24:28.529Z,6.60
2018-11-22T15:26:57.422Z,6.70
2018-11-22T15:29:24.892Z,6.50
2018-11-22T15:31:52.337Z,6.60
2018-11-22T15:34:19.779Z,6.70
2018-11-22T15:36:47.437Z,6.50
2018-11-22T15:39:18.840Z,6.40
2018-11-22T15:41:46.264Z,6.40
2018-11-22T15:44:13.699Z,6.40
2018-11-22T15:46:47.880Z,6.50
2018-11-22T15:49:15.278Z,6.40
2018-11-22T15:51:44.620Z,6.30
2018-11-22T15:54:12.215Z,6.30
2018-11-22T15:56:39.835Z,6.30
2018-11-22T15:59:07.526Z,6.30
2018-11-22T16:01:34.966Z,6.40
2018-11-22T16:04:02.447Z,6.30
2018-11-22T16:06:34.357Z,6.20
2018-11-22T16:09:01.843Z,6.30
2018-11-22T16:11:29.326Z,6.30
2018-11-22T16:13:56.806Z,6.20
2018-11-22T16:16:24.264Z,6.10
2018-11-22T16:18:51.539Z,6.10
2018-11-22T16:21:21.889Z,6.20
2018-11-22T16:23:49.550Z,6.20
2018-11-22T16:26:16.863Z,6.30
2018-11-22T16:28:44.295Z,6.30
2018-11-22T16:31:12.098Z,6.30
2018-11-22T16:33:39.429Z,6.30
2018-11-22T16:36:06.918Z,6.30
2018-11-22T16:38:34.556Z,6.30
2018-11-22T16:41:01.912Z,6.50
2018-11-22T16:43:29.215Z,6.50
2018-11-22T16:45:56.514Z,6.50
2018-11-22T16:48:24.429Z,6.40
2018-11-22T16:50:51.955Z,6.20
2018-11-22T16:53:19.439Z,6.30
2018-11-22T16:55:46.751Z,6.20
2018-11-22T17:01:07.227Z,6.20
2018-11-22T17:03:34.532Z,6.20
2018-11-22T17:06:06.371Z,6.10
2018-11-22T17:08:33.800Z,6.00
2018-11-22T17:11:02.266Z,5.80
2018-11-22T17:13:28.459Z,6.10
2018-11-22T17:15:55.754Z,6.20
2018-11-22T17:18:23.002Z,6.00
2018-11-22T17:20:51.491Z,6.40
2018-11-22T17:23:22.756Z,6.30
2018-11-22T17:25:50.007Z,6.20
2018-11-22T17:28:17.276Z,6.00
2018-11-22T17:30:45.134Z,6.00
2018-11-22T17:33:12.503Z,5.90
2018-11-22T17:35:45.346Z,6.00
2018-11-22T17:38:13.239Z,6.10
2018-11-22T17:40:46.232Z,6.00
2018-11-22T17:43:13.686Z,6.00
2018-11-22T17:45:42.779Z,6.00
2018-11-22T17:48:12.012Z,5.90
2018-11-22T17:50:40.862Z,6.00
2018-11-22T17:53:08.899Z,6.10
2018-11-22T17:55:36.194Z,5.90
2018-11-22T17:58:03.708Z,5.90
2018-11-22T18:00:40.762Z,5.80
2018-11-22T18:03:08.411Z,5.70
2018-11-22T18:05:36.151Z,5.50
2018-11-22T18:08:03.894Z,5.70
2018-11-22T18:10:37.607Z,6.00
2018-11-22T18:13:05.418Z,5.90
2018-11-22T18:15:34.930Z,5.80
2018-11-22T18:18:02.423Z,5.90
2018-11-22T18:20:30.936Z,6.10
2018-11-22T18:23:03.014Z,6.00
2018-11-22T18:25:31.586Z,6.00
2018-11-22T18:27:59.615Z,6.00
2018-11-22T18:30:29.217Z,5.90
2018-11-22T18:33:04.417Z,5.90
2018-11-22T18:35:31.936Z,5.90
2018-11-22T18:37:59.935Z,6.00
2018-11-22T18:40:28.892Z,5.90
2018-11-22T18:42:57.391Z,5.90
2018-11-22T18:45:32.519Z,5.90
2018-11-22T18:48:01.436Z,5.80
2018-11-22T18:50:30.026Z,5.70
2018-11-22T18:52:57.627Z,5.70
2018-11-22T18:55:25.189Z,5.60
2018-11-22T18:57:52.783Z,5.50
2018-11-22T19:00:23.763Z,5.40
2018-11-22T19:02:52.458Z,5.30
2018-11-22T19:05:20.038Z,5.30
2018-11-22T19:07:49.385Z,5.30
2018-11-22T19:10:22.695Z,5.20
2018-11-22T19:12:51.267Z,5.10
2018-11-22T19:15:20.062Z,5.00
2018-11-22T19:17:47.927Z,4.90
2018-11-22T19:20:18.060Z,4.80
2018-11-22T19:22:49.657Z,4.60
2018-11-22T19:25:17.684Z,4.60
2018-11-22T19:27:45.429Z,4.50
2018-11-22T19:30:18.440Z,4.50
2018-11-22T19:32:47.007Z,4.50
2018-11-22T19:35:15.507Z,4.50
2018-11-22T19:37:43.417Z,4.40
2018-11-22T19:40:14.231Z,4.40
2018-11-22T19:42:42.614Z,4.30
2018-11-22T19:45:11.771Z,4.30
2018-11-22T19:47:39.576Z,4.20
2018-11-22T19:50:09.874Z,4.20
2018-11-22T19:52:38.040Z,4.10
2018-11-22T19:55:07.574Z,4.10
2018-11-22T19:57:35.192Z,4.00
2018-11-22T20:00:02.960Z,4.00
2018-11-22T20:02:30.532Z,4.00
2018-11-22T20:04:58.376Z,3.90
2018-11-22T20:07:25.871Z,3.90
2018-11-22T20:09:53.380Z,3.80
2018-11-22T20:12:21.055Z,3.70
2018-11-22T20:14:48.538Z,3.70
2018-11-22T20:17:16.073Z,3.60
2018-11-22T20:19:43.627Z,3.50
2018-11-22T20:22:11.150Z,3.50
2018-11-22T20:24:38.892Z,3.60
2018-11-22T20:27:06.733Z,3.50
2018-11-22T20:29:34.267Z,3.50
2018-11-22T20:32:01.817Z,3.50
2018-11-22T20:34:29.391Z,3.50
2018-11-22T20:36:56.872Z,3.40
2018-11-22T20:39:24.385Z,3.40
2018-11-22T20:41:51.987Z,3.50
2018-11-22T20:44:19.462Z,3.40
2018-11-22T20:46:46.938Z,3.30
2018-11-22T20:49:14.392Z,3.30
2018-11-22T20:51:41.854Z,3.30
2018-11-22T20:54:09.350Z,3.20
2018-11-22T20:56:36.903Z,3.20
2018-11-22T20:59:04.395Z,3.20
2018-11-22T21:01:31.878Z,3.10
2018-11-22T21:03:59.462Z,3.10
2018-11-22T21:06:27.035Z,2.90
2018-11-22T21:08:54.506Z,3.00
2018-11-22T21:11:22.003Z,2.80
2018-11-22T21:13:49.459Z,2.90
2018-11-22T21:16:16.974Z,2.90
2018-11-22T21:18:44.539Z,3.00
2018-11-22T21:21:12.088Z,2.90
2018-11-22T21:23:39.659Z,3.30
2018-11-22T21:26:14.192Z,2.80
2018-11-22T21:28:35.126Z,2.80
2018-11-22T21:31:02.642Z,3.10
2018-11-22T21:33:30.145Z,2.80
2018-11-22T21:35:57.934Z,2.80
2018-11-22T21:38:25.822Z,2.90
2018-11-22T21:40:54.515Z,2.90
2018-11-22T21:43:22.293Z,2.70
2018-11-22T21:45:49.918Z,2.70
2018-11-22T21:48:17.482Z,2.80
2018-11-22T21:50:45.111Z,2.90
2018-11-22T21:53:12.576Z,2.80
2018-11-22T21:55:40.199Z,2.80
2018-11-22T21:58:07.734Z,2.90
2018-11-22T22:00:38.803Z,2.90
2018-11-22T22:03:07.691Z,2.80
2018-11-22T22:05:35.999Z,2.80
2018-11-22T22:08:03.601Z,2.70
2018-11-22T22:10:31.167Z,2.80
2018-11-22T22:12:59.814Z,2.80
2018-11-22T22:15:28.654Z,2.80
2018-11-22T22:17:56.971Z,2.80
2018-11-22T22:20:27.498Z,2.70
2018-11-22T22:22:55.016Z,2.70
2018-11-22T22:25:23.513Z,2.70
2018-11-22T22:27:51.995Z,2.80
2018-11-22T22:30:25.596Z,2.70
2018-11-22T22:32:54.478Z,2.60
2018-11-22T22:35:22.238Z,2.60
2018-11-22T22:37:49.909Z,2.60
2018-11-22T22:40:18.947Z,2.60
2018-11-22T22:42:47.278Z,2.50
2018-11-22T22:45:15.669Z,2.50
2018-11-22T22:47:44.006Z,2.40
2018-11-22T22:50:14.726Z,2.40
2018-11-22T22:52:42.270Z,2.40
2018-11-22T22:55:10.706Z,2.30
2018-11-22T22:57:38.480Z,2.30
2018-11-22T23:00:21.631Z,2.20
2018-11-22T23:02:54.412Z,2.20
2018-11-22T23:05:22.548Z,2.20
2018-11-22T23:07:50.143Z,2.10
2018-11-22T23:10:18.288Z,2.10
2018-11-22T23:12:46.042Z,2.10
2018-11-22T23:15:14.743Z,2.10
2018-11-22T23:17:42.442Z,2.00
2018-11-22T23:20:12.927Z,2.00
2018-11-22T23:22:41.002Z,2.00
2018-11-22T23:25:09.470Z,2.00
2018-11-22T23:27:37.456Z,2.00
2018-11-22T23:30:10.640Z,1.90
2018-11-22T23:32:39.001Z,1.90
2018-11-22T23:35:06.729Z,1.80
2018-11-22T23:37:34.205Z,1.80
2018-11-22T23:40:02.095Z,1.90
2018-11-22T23:42:29.664Z,1.90
2018-11-22T23:44:57.151Z,1.90
2018-11-22T23:47:24.703Z,1.90
2018-11-22T23:49:53.014Z,1.90
2018-11-22T23:52:20.648Z,1.90
2018-11-22T23:54:48.243Z,1.90
2018-11-22T23:57:15.759Z,1.80
2018-11-22T23:59:43.239Z,1.90
